Willkommen auf der Webseite des Flugplatzes Uetersen/Heist PDF Drucken E-Mail

Liebe Fliegerfreunde, Piloten und Gäste,

wir wünschen ruhige Weihnachtstage und einen guten Rutsch nach 2018.

 

Bitte beachten Sie die NOTAMs zu den Öffnungszeiten an den Feiertagen, sowie zur Pistenbeschaffenheit.

 

Herr Szaguhn steht mit seinem Tower-Restaurant täglich außer Montags für Sie bereit.

 

Ihr Flugplatzteam

 

 

Zufallsbild

Aktuelle Termine

Mo Di Mi Do Fr Sa So
1 2 3 4 5 6 7
8 9 10 11 12 13 14
15 16 17 18 19 20 21
22 23 24 25 26 27 28
29 30 31 1 2 3 4

Pilotenwetter

[source: ADDS]
METAR
EDDH 211950Z 15007KT 7000 OVC004 M00/M01 Q1016 R88/190195 TEMPO BKN005 =
TAF
TAF COR EDDH 211712Z 2118/2224 15007KT 2000 BR BKN003 TEMPO 2118/2124 1200 OVC001 BECMG 2119/2122 5000 BKN012 TEMPO 2122/2208 BKN015 BECMG 2208/2210 BKN008 TEMPO 2208/2224 2000 -SN OVC004 BECMG 2217/2219 VRB03KT =